createdAt,value
2018-12-11T00:01:49.114Z,62.20
2018-12-11T00:04:16.613Z,61.80
2018-12-11T00:06:44.234Z,61.70
2018-12-11T00:09:11.697Z,61.80
2018-12-11T00:11:39.236Z,61.90
2018-12-11T00:14:06.732Z,61.70
2018-12-11T00:16:34.383Z,61.60
2018-12-11T00:19:01.828Z,62.00
2018-12-11T00:21:29.350Z,62.40
2018-12-11T00:23:56.830Z,62.10
2018-12-11T00:26:24.353Z,62.10
2018-12-11T00:28:51.877Z,62.30
2018-12-11T00:31:19.377Z,61.70
2018-12-11T00:33:47.821Z,61.90
2018-12-11T00:36:15.337Z,61.50
2018-12-11T00:38:42.788Z,62.30
2018-12-11T00:41:10.265Z,61.70
2018-12-11T00:43:37.740Z,61.50
2018-12-11T00:46:05.209Z,62.90
2018-12-11T00:48:32.657Z,61.60
2018-12-11T00:51:00.126Z,61.40
2018-12-11T00:53:27.576Z,61.90
2018-12-11T00:55:55.047Z,61.20
2018-12-11T00:58:22.672Z,61.60
2018-12-11T01:00:50.145Z,61.30
2018-12-11T01:03:17.622Z,61.80
2018-12-11T01:05:45.089Z,61.90
2018-12-11T01:08:12.562Z,61.70
2018-12-11T01:10:40.033Z,61.40
2018-12-11T01:13:07.477Z,61.60
2018-12-11T01:15:34.962Z,61.20
2018-12-11T01:18:02.421Z,61.80
2018-12-11T01:20:29.909Z,61.80
2018-12-11T01:22:57.420Z,61.70
2018-12-11T01:25:24.873Z,61.80
2018-12-11T01:27:52.328Z,61.70
2018-12-11T01:30:19.834Z,61.80
2018-12-11T01:32:47.276Z,61.30
2018-12-11T01:35:14.748Z,61.80
2018-12-11T01:37:42.224Z,60.80
2018-12-11T01:40:09.752Z,61.10
2018-12-11T01:42:37.198Z,61.60
2018-12-11T01:45:05.481Z,61.60
2018-12-11T01:47:32.929Z,61.10
2018-12-11T01:50:00.396Z,61.20
2018-12-11T01:52:27.870Z,61.40
2018-12-11T01:54:55.313Z,61.10
2018-12-11T01:57:22.886Z,61.60
2018-12-11T01:59:50.393Z,61.30
2018-12-11T02:02:17.895Z,61.30
2018-12-11T02:04:45.345Z,61.40
2018-12-11T02:07:12.830Z,61.40
2018-12-11T02:09:40.431Z,61.40
2018-12-11T02:12:07.921Z,61.20
2018-12-11T02:14:35.372Z,61.10
2018-12-11T02:17:02.850Z,61.50
2018-12-11T02:19:30.314Z,61.10
2018-12-11T02:21:57.785Z,61.30
2018-12-11T02:24:25.234Z,61.70
2018-12-11T02:26:52.763Z,61.60
2018-12-11T02:29:20.223Z,61.60
2018-12-11T02:31:47.802Z,61.40
2018-12-11T02:34:15.263Z,62.00
2018-12-11T02:36:42.751Z,62.30
2018-12-11T02:39:10.207Z,62.30
2018-12-11T02:41:37.680Z,62.50
2018-12-11T02:44:05.133Z,62.20
2018-12-11T02:46:32.664Z,62.30
2018-12-11T02:49:00.202Z,62.40
2018-12-11T02:51:27.748Z,62.60
2018-12-11T02:53:55.233Z,62.80
2018-12-11T02:56:22.818Z,63.80
2018-12-11T02:58:50.286Z,63.40
2018-12-11T03:01:17.835Z,63.30
2018-12-11T03:03:45.334Z,63.80
2018-12-11T03:06:12.790Z,63.30
2018-12-11T03:08:40.386Z,63.90
2018-12-11T03:11:07.841Z,63.50
2018-12-11T03:13:35.322Z,63.30
2018-12-11T03:16:02.829Z,63.30
2018-12-11T03:18:30.368Z,63.90
2018-12-11T03:20:57.813Z,63.60
2018-12-11T03:23:25.382Z,63.90
2018-12-11T03:25:52.830Z,63.30
2018-12-11T03:28:20.470Z,63.30
2018-12-11T03:30:47.947Z,63.20
2018-12-11T03:33:15.489Z,63.30
2018-12-11T03:35:42.948Z,63.60
2018-12-11T03:38:10.588Z,63.30
2018-12-11T03:40:38.088Z,63.60
2018-12-11T03:43:05.568Z,63.60
2018-12-11T03:45:33.075Z,63.50
2018-12-11T03:48:00.567Z,63.10
2018-12-11T03:50:28.095Z,63.00
2018-12-11T03:52:55.640Z,63.10
2018-12-11T03:55:23.156Z,63.10
2018-12-11T03:57:50.625Z,63.50
2018-12-11T04:00:18.184Z,63.10
2018-12-11T04:02:45.657Z,63.00
2018-12-11T04:05:13.118Z,63.40
2018-12-11T04:07:40.605Z,63.10
2018-12-11T04:10:08.289Z,62.70
2018-12-11T04:12:35.799Z,63.10
2018-12-11T04:15:04.366Z,62.70
2018-12-11T04:17:31.818Z,62.80
2018-12-11T04:19:59.422Z,63.50
2018-12-11T04:22:27.094Z,62.80
2018-12-11T04:24:54.562Z,62.70
2018-12-11T04:27:22.013Z,62.80
2018-12-11T04:29:49.485Z,62.80
2018-12-11T04:32:16.942Z,62.90
2018-12-11T04:34:44.443Z,63.20
2018-12-11T04:37:11.916Z,63.00
2018-12-11T04:39:39.378Z,63.00
2018-12-11T04:42:06.964Z,62.70
2018-12-11T04:44:34.442Z,63.20
2018-12-11T04:47:01.965Z,62.80
2018-12-11T04:49:29.505Z,63.20
2018-12-11T04:51:57.022Z,63.00
2018-12-11T04:54:24.596Z,63.20
2018-12-11T04:56:52.054Z,64.00
2018-12-11T04:59:19.534Z,63.90
2018-12-11T05:01:47.037Z,64.30
2018-12-11T05:04:14.533Z,64.40
2018-12-11T05:06:42.042Z,64.70
2018-12-11T05:09:09.542Z,64.90
2018-12-11T05:11:37.014Z,65.00
2018-12-11T05:14:04.627Z,65.50
2018-12-11T05:16:32.109Z,65.40
2018-12-11T05:18:59.568Z,65.60
2018-12-11T05:21:27.089Z,65.80
2018-12-11T05:23:54.606Z,66.40
2018-12-11T05:26:22.113Z,65.80
2018-12-11T05:28:49.557Z,65.80
2018-12-11T05:31:17.079Z,65.80
2018-12-11T05:33:44.528Z,65.40
2018-12-11T05:36:12.722Z,66.70
2018-12-11T05:38:40.186Z,65.40
2018-12-11T05:41:07.672Z,65.60
2018-12-11T05:43:35.187Z,65.90
2018-12-11T05:46:02.692Z,65.10
2018-12-11T05:48:30.149Z,65.40
2018-12-11T05:50:57.631Z,64.80
2018-12-11T05:53:25.366Z,64.80
2018-12-11T05:55:52.857Z,64.90
2018-12-11T05:58:20.342Z,64.80
2018-12-11T06:00:48.520Z,65.30
2018-12-11T06:03:16.110Z,65.40
2018-12-11T06:05:43.806Z,65.20
2018-12-11T06:08:18.163Z,64.80
2018-12-11T06:10:45.684Z,64.80
2018-12-11T06:13:13.379Z,65.20
2018-12-11T06:15:40.953Z,64.90
2018-12-11T06:18:08.406Z,64.60
2018-12-11T06:20:35.906Z,65.10
2018-12-11T06:23:03.411Z,64.60
2018-12-11T06:25:30.900Z,64.50
2018-12-11T06:27:58.422Z,64.40
2018-12-11T06:30:25.889Z,64.20
2018-12-11T06:32:53.354Z,64.10
2018-12-11T06:35:20.818Z,64.50
2018-12-11T06:37:48.357Z,64.40
2018-12-11T06:40:15.824Z,64.20
2018-12-11T06:42:43.337Z,64.20
2018-12-11T06:45:11.066Z,64.60
2018-12-11T06:47:38.544Z,64.00
2018-12-11T06:50:07.113Z,64.50
2018-12-11T06:52:34.645Z,63.70
2018-12-11T06:55:02.259Z,64.20
2018-12-11T06:57:29.712Z,64.10
2018-12-11T06:59:57.165Z,64.10
2018-12-11T07:02:24.655Z,64.30
2018-12-11T07:04:52.110Z,64.00
2018-12-11T07:07:19.690Z,64.00
2018-12-11T07:09:47.158Z,64.00
2018-12-11T07:12:14.630Z,64.10
2018-12-11T07:14:42.095Z,64.20
2018-12-11T07:17:09.809Z,64.20
2018-12-11T07:19:37.343Z,64.80
2018-12-11T07:22:05.458Z,64.70
2018-12-11T07:24:33.032Z,64.90
2018-12-11T07:27:04.246Z,64.40
2018-12-11T07:29:32.392Z,64.80
2018-12-11T07:32:00.096Z,64.80
2018-12-11T07:34:27.552Z,64.50
2018-12-11T07:36:55.099Z,64.80
2018-12-11T07:39:22.575Z,64.60
2018-12-11T07:41:50.050Z,64.20
2018-12-11T07:44:17.549Z,64.30
2018-12-11T07:46:45.034Z,64.20
2018-12-11T07:49:12.587Z,64.20
2018-12-11T07:51:40.098Z,64.60
2018-12-11T07:54:07.555Z,64.60
2018-12-11T07:56:35.022Z,64.30
2018-12-11T07:59:02.557Z,64.90
2018-12-11T08:01:30.042Z,64.30
2018-12-11T08:03:57.525Z,64.80
2018-12-11T08:06:25.000Z,64.30
2018-12-11T08:08:52.446Z,64.30
2018-12-11T08:11:19.957Z,64.20
2018-12-11T08:13:47.506Z,63.90
2018-12-11T08:16:16.239Z,64.60
2018-12-11T08:18:43.749Z,64.40
2018-12-11T08:21:11.221Z,64.10
2018-12-11T08:23:38.783Z,64.60
2018-12-11T08:26:06.246Z,64.30
2018-12-11T08:28:33.790Z,64.60
2018-12-11T08:31:01.288Z,64.40
2018-12-11T08:33:28.772Z,64.60
2018-12-11T08:35:56.242Z,64.10
2018-12-11T08:38:23.718Z,64.50
2018-12-11T08:40:51.181Z,65.60
2018-12-11T08:43:18.676Z,64.30
2018-12-11T08:45:46.221Z,64.20
2018-12-11T08:48:13.700Z,64.30
2018-12-11T08:50:41.149Z,64.20
2018-12-11T08:53:08.678Z,64.60
2018-12-11T08:55:36.130Z,64.40
2018-12-11T08:58:03.611Z,64.40
2018-12-11T09:00:31.119Z,64.40
2018-12-11T09:02:58.604Z,64.40
2018-12-11T09:05:26.085Z,64.30
2018-12-11T09:07:53.583Z,64.00
2018-12-11T09:10:21.085Z,64.20
2018-12-11T09:12:48.554Z,64.20
2018-12-11T09:15:16.031Z,64.20
2018-12-11T09:17:43.504Z,64.00
2018-12-11T09:20:11.005Z,64.00
2018-12-11T09:22:38.485Z,63.60
2018-12-11T09:25:06.063Z,63.30
2018-12-11T09:27:33.701Z,63.40
2018-12-11T09:30:01.187Z,63.00
2018-12-11T09:32:29.199Z,63.60
2018-12-11T09:34:56.761Z,63.80
2018-12-11T09:37:24.276Z,63.90
2018-12-11T09:39:51.877Z,64.00
2018-12-11T09:42:19.342Z,63.90
2018-12-11T09:44:46.797Z,63.70
2018-12-11T09:47:14.282Z,63.80
2018-12-11T09:49:41.804Z,63.90
2018-12-11T09:52:09.399Z,63.50
2018-12-11T09:54:36.857Z,63.20
2018-12-11T09:57:04.377Z,63.30
2018-12-11T09:59:31.915Z,63.60
2018-12-11T10:01:59.515Z,63.80
2018-12-11T10:04:27.140Z,63.50
2018-12-11T10:06:54.738Z,63.50
2018-12-11T10:09:22.208Z,63.90
2018-12-11T10:11:49.677Z,64.30
2018-12-11T10:14:17.944Z,64.30
2018-12-11T10:16:45.430Z,64.70
2018-12-11T10:19:12.946Z,65.40
2018-12-11T10:21:40.391Z,65.50
2018-12-11T10:24:07.861Z,65.70
2018-12-11T10:26:35.400Z,66.70
2018-12-11T10:29:03.007Z,66.40
2018-12-11T10:31:30.464Z,66.60
2018-12-11T10:33:58.139Z,65.90
2018-12-11T10:36:25.677Z,66.70
2018-12-11T10:38:53.155Z,66.40
2018-12-11T10:41:20.663Z,66.50
2018-12-11T10:43:48.134Z,65.60
2018-12-11T10:46:15.590Z,65.40
2018-12-11T10:48:43.063Z,64.90
2018-12-11T10:51:10.508Z,64.50
2018-12-11T10:53:37.994Z,64.40
2018-12-11T10:56:05.513Z,64.30
2018-12-11T10:58:32.981Z,64.00
2018-12-11T11:01:06.237Z,64.30
2018-12-11T11:03:33.835Z,63.80
2018-12-11T11:06:01.298Z,63.60
2018-12-11T11:08:28.774Z,63.40
2018-12-11T11:10:56.240Z,63.60
2018-12-11T11:13:23.707Z,63.70
2018-12-11T11:15:51.314Z,63.40
2018-12-11T11:18:19.235Z,63.80
2018-12-11T11:20:46.741Z,63.80
2018-12-11T11:23:14.211Z,63.60
2018-12-11T11:25:42.258Z,63.90
2018-12-11T11:28:09.801Z,63.40
2018-12-11T11:30:37.368Z,63.40
2018-12-11T11:33:04.968Z,63.30
2018-12-11T11:35:32.469Z,63.20
2018-12-11T11:38:00.030Z,62.60
2018-12-11T11:40:27.600Z,62.20
2018-12-11T11:42:55.067Z,61.90
2018-12-11T11:45:22.609Z,62.00
2018-12-11T11:47:50.062Z,61.40
2018-12-11T11:50:17.850Z,61.10
2018-12-11T11:52:45.296Z,60.90
2018-12-11T11:55:12.776Z,61.20
2018-12-11T11:57:40.306Z,60.80
2018-12-11T12:00:10.363Z,60.70
2018-12-11T12:02:37.815Z,60.80
2018-12-11T12:05:05.804Z,60.40
2018-12-11T12:07:33.303Z,60.30
2018-12-11T12:10:00.803Z,60.50
2018-12-11T12:12:28.391Z,59.90
2018-12-11T12:14:55.863Z,60.00
2018-12-11T12:17:23.353Z,60.00
2018-12-11T12:19:50.842Z,59.80
2018-12-11T12:22:18.286Z,59.90
2018-12-11T12:24:45.806Z,59.90
2018-12-11T12:27:13.301Z,59.50
2018-12-11T12:29:40.770Z,59.70
2018-12-11T12:32:08.375Z,59.80
2018-12-11T12:34:35.853Z,59.50
2018-12-11T12:37:03.377Z,59.50
2018-12-11T12:39:30.972Z,59.80
2018-12-11T12:41:58.531Z,59.50
2018-12-11T12:44:26.439Z,59.90
2018-12-11T12:46:53.926Z,59.70
2018-12-11T12:49:21.394Z,59.80
2018-12-11T12:51:48.867Z,59.50
2018-12-11T12:54:16.340Z,60.00
2018-12-11T12:56:43.837Z,59.60
2018-12-11T12:59:11.322Z,59.60
2018-12-11T13:01:38.798Z,59.50
2018-12-11T13:04:06.369Z,59.60
2018-12-11T13:06:34.038Z,59.50
2018-12-11T13:09:01.601Z,59.60
2018-12-11T13:11:29.141Z,59.60
2018-12-11T13:13:57.069Z,59.50
2018-12-11T13:16:24.711Z,59.40
2018-12-11T13:18:52.198Z,59.70
2018-12-11T13:21:19.693Z,59.20
2018-12-11T13:23:47.774Z,59.10
2018-12-11T13:26:15.280Z,58.80
2018-12-11T13:28:42.988Z,58.70
2018-12-11T13:31:10.468Z,58.70
2018-12-11T13:33:37.921Z,58.80
2018-12-11T13:36:06.257Z,58.60
2018-12-11T13:38:33.718Z,58.50
2018-12-11T13:41:01.365Z,58.40
2018-12-11T13:43:28.985Z,58.20
2018-12-11T13:45:56.456Z,58.30
2018-12-11T13:48:24.112Z,58.20
2018-12-11T13:50:51.673Z,58.20
2018-12-11T13:53:19.140Z,57.80
2018-12-11T13:55:46.609Z,57.20
2018-12-11T13:58:14.093Z,56.60
2018-12-11T14:00:41.566Z,56.30
2018-12-11T14:03:09.025Z,56.10
2018-12-11T14:05:36.514Z,55.80
2018-12-11T14:08:04.059Z,55.80
2018-12-11T14:10:31.618Z,55.50
2018-12-11T14:12:59.123Z,55.60
2018-12-11T14:15:26.700Z,55.40
2018-12-11T14:17:54.163Z,55.30
2018-12-11T14:20:21.629Z,55.40
2018-12-11T14:22:49.144Z,56.00
2018-12-11T14:25:16.685Z,55.40
2018-12-11T14:27:44.188Z,55.60
2018-12-11T14:30:11.823Z,56.00
2018-12-11T14:32:39.279Z,55.90
2018-12-11T14:35:06.823Z,56.80
2018-12-11T14:37:34.306Z,56.90
2018-12-11T14:40:01.794Z,57.20
2018-12-11T14:42:30.271Z,57.20
2018-12-11T14:44:57.768Z,56.90
2018-12-11T14:47:25.249Z,57.00
2018-12-11T14:49:52.697Z,57.00
2018-12-11T14:52:20.224Z,57.30
2018-12-11T14:54:48.153Z,57.10
2018-12-11T14:57:15.626Z,57.20
2018-12-11T14:59:43.105Z,57.30
2018-12-11T15:02:10.589Z,57.20
2018-12-11T15:04:38.098Z,57.10
2018-12-11T15:07:05.628Z,57.20
2018-12-11T15:09:38.649Z,57.50
2018-12-11T15:12:06.199Z,57.50
2018-12-11T15:14:33.707Z,57.80
2018-12-11T15:17:01.247Z,57.80
2018-12-11T15:19:28.702Z,58.00
2018-12-11T15:21:56.204Z,58.20
2018-12-11T15:24:23.667Z,58.30
2018-12-11T15:26:51.141Z,58.40
2018-12-11T15:29:18.608Z,58.70
2018-12-11T15:31:46.194Z,58.70
2018-12-11T15:34:13.711Z,58.90
2018-12-11T15:36:41.357Z,59.30
2018-12-11T15:39:08.877Z,59.40
2018-12-11T15:41:36.378Z,59.40
2018-12-11T15:44:03.943Z,59.40
2018-12-11T15:46:31.875Z,59.50
2018-12-11T15:48:59.439Z,59.50
2018-12-11T15:51:26.902Z,59.60
2018-12-11T15:53:54.374Z,60.10
2018-12-11T15:56:21.845Z,59.90
2018-12-11T15:58:49.410Z,59.70
2018-12-11T16:01:16.935Z,59.50
2018-12-11T16:03:44.497Z,60.00
2018-12-11T16:06:11.971Z,60.10
2018-12-11T16:08:39.431Z,59.60
2018-12-11T16:11:07.073Z,59.70
2018-12-11T16:13:34.537Z,59.70
2018-12-11T16:16:02.222Z,59.60
2018-12-11T16:18:29.701Z,59.60
2018-12-11T16:20:57.159Z,59.60
2018-12-11T16:23:24.681Z,59.10
2018-12-11T16:25:52.148Z,59.70
2018-12-11T16:28:19.677Z,59.70
2018-12-11T16:30:47.195Z,59.70
2018-12-11T16:33:14.729Z,59.70
2018-12-11T16:35:42.261Z,60.40
2018-12-11T16:38:09.732Z,59.50
2018-12-11T16:40:37.192Z,59.80
2018-12-11T16:43:04.687Z,59.70
2018-12-11T16:45:32.189Z,59.80
2018-12-11T16:47:59.708Z,60.40
2018-12-11T16:50:27.207Z,60.40
2018-12-11T16:52:54.667Z,59.90
2018-12-11T16:55:22.138Z,59.90
2018-12-11T16:57:49.627Z,60.30
2018-12-11T17:00:17.086Z,59.90
2018-12-11T17:02:44.587Z,60.00
2018-12-11T17:05:12.041Z,60.10
2018-12-11T17:07:39.511Z,60.30
2018-12-11T17:10:07.187Z,59.90
2018-12-11T17:12:35.789Z,59.90
2018-12-11T17:15:04.296Z,60.20
2018-12-11T17:17:32.122Z,60.40
2018-12-11T17:19:59.600Z,60.10
2018-12-11T17:22:27.095Z,60.10
2018-12-11T17:24:54.563Z,60.80
2018-12-11T17:27:22.062Z,60.40
2018-12-11T17:29:49.521Z,60.50
2018-12-11T17:32:16.977Z,60.50
2018-12-11T17:34:44.455Z,60.50
2018-12-11T17:37:11.917Z,60.90
2018-12-11T17:39:39.399Z,60.50
2018-12-11T17:42:06.868Z,60.50
2018-12-11T17:44:34.474Z,60.60
2018-12-11T17:47:01.958Z,61.00
2018-12-11T17:49:29.438Z,60.80
2018-12-11T17:51:56.909Z,60.40
2018-12-11T17:54:24.372Z,60.10
2018-12-11T17:56:52.071Z,60.50
2018-12-11T17:59:19.659Z,60.70
2018-12-11T18:01:48.464Z,60.70
2018-12-11T18:04:18.349Z,60.80
2018-12-11T18:06:45.821Z,61.30
2018-12-11T18:09:13.320Z,61.20
2018-12-11T18:11:40.955Z,61.50
2018-12-11T18:14:08.446Z,61.90
2018-12-11T18:16:36.072Z,62.20
2018-12-11T18:19:03.541Z,62.80
2018-12-11T18:21:31.104Z,62.50
2018-12-11T18:23:58.574Z,62.50
2018-12-11T18:26:26.049Z,62.30
2018-12-11T18:28:53.523Z,62.50
2018-12-11T18:31:20.969Z,62.40
2018-12-11T18:33:48.446Z,62.60
2018-12-11T18:36:19.310Z,62.00
2018-12-11T18:38:46.786Z,62.10
2018-12-11T18:41:14.242Z,61.90
2018-12-11T18:43:41.726Z,62.00
2018-12-11T18:46:09.172Z,61.60
2018-12-11T18:48:36.773Z,61.60
2018-12-11T18:51:04.303Z,61.70
2018-12-11T18:53:31.782Z,61.90
2018-12-11T18:55:59.260Z,62.20
2018-12-11T18:58:26.713Z,61.80
2018-12-11T19:00:54.270Z,61.70
2018-12-11T19:03:21.722Z,61.70
2018-12-11T19:05:49.185Z,61.80
2018-12-11T19:08:16.661Z,61.80
2018-12-11T19:10:44.125Z,61.60
2018-12-11T19:13:11.639Z,62.00
2018-12-11T19:15:39.196Z,61.60
2018-12-11T19:18:06.812Z,61.50
2018-12-11T19:20:34.370Z,61.50
2018-12-11T19:23:05.777Z,61.50
2018-12-11T19:25:33.257Z,61.80
2018-12-11T19:28:00.717Z,61.90
2018-12-11T19:30:28.216Z,61.60
2018-12-11T19:32:55.739Z,60.80
2018-12-11T19:35:23.270Z,60.80
2018-12-11T19:37:50.821Z,60.80
2018-12-11T19:40:18.289Z,60.70
2018-12-11T19:42:45.760Z,61.00
2018-12-11T19:45:13.348Z,61.00
2018-12-11T19:47:40.840Z,61.50
2018-12-11T19:50:08.529Z,61.80
2018-12-11T19:52:39.647Z,61.20
2018-12-11T19:55:05.878Z,61.70
2018-12-11T19:57:33.333Z,61.40
2018-12-11T20:00:00.825Z,61.80
2018-12-11T20:02:28.472Z,61.30
2018-12-11T20:04:56.003Z,61.40
2018-12-11T20:07:24.182Z,61.30
2018-12-11T20:09:57.293Z,62.10
2018-12-11T20:12:24.769Z,61.70
2018-12-11T20:14:52.314Z,61.30
2018-12-11T20:17:19.768Z,61.40
2018-12-11T20:19:47.285Z,61.20
2018-12-11T20:22:14.851Z,61.00
2018-12-11T20:24:42.376Z,60.80
2018-12-11T20:27:09.837Z,61.00
2018-12-11T20:29:37.315Z,60.60
2018-12-11T20:32:04.938Z,60.60
2018-12-11T20:34:32.434Z,60.70
2018-12-11T20:37:00.022Z,61.20
2018-12-11T20:39:27.479Z,61.00
2018-12-11T20:41:55.082Z,61.00
2018-12-11T20:44:22.536Z,61.20
2018-12-11T20:46:50.030Z,61.60
2018-12-11T20:49:17.490Z,61.20
2018-12-11T20:51:44.982Z,61.20
2018-12-11T20:54:12.470Z,61.10
2018-12-11T20:56:39.956Z,61.70
2018-12-11T20:59:07.407Z,61.00
2018-12-11T21:01:34.926Z,61.10
2018-12-11T21:04:02.419Z,61.10
2018-12-11T21:06:30.691Z,61.00
2018-12-11T21:08:58.164Z,61.10
2018-12-11T21:11:25.652Z,61.20
2018-12-11T21:13:53.133Z,61.50
2018-12-11T21:16:20.626Z,61.20
2018-12-11T21:18:48.337Z,60.90
2018-12-11T21:21:16.088Z,60.90
2018-12-11T21:23:43.570Z,61.10
2018-12-11T21:26:11.038Z,61.10
2018-12-11T21:28:38.522Z,61.10
2018-12-11T21:31:06.058Z,61.80
2018-12-11T21:33:33.557Z,61.40
2018-12-11T21:36:01.027Z,61.30
2018-12-11T21:38:28.477Z,61.40
2018-12-11T21:40:55.971Z,61.00
2018-12-11T21:43:23.519Z,61.60
2018-12-11T21:45:51.026Z,61.10
2018-12-11T21:48:18.476Z,61.30
2018-12-11T21:50:45.981Z,61.80
2018-12-11T21:53:13.492Z,62.00
2018-12-11T21:55:40.937Z,62.20
2018-12-11T21:58:08.493Z,62.20
2018-12-11T22:00:36.058Z,61.40
2018-12-11T22:03:03.547Z,61.40
2018-12-11T22:05:31.091Z,61.50
2018-12-11T22:07:58.574Z,61.50
2018-12-11T22:10:26.040Z,61.40
2018-12-11T22:12:53.585Z,61.40
2018-12-11T22:15:21.033Z,61.50
2018-12-11T22:17:49.088Z,61.60
2018-12-11T22:20:16.596Z,62.00
2018-12-11T22:22:44.069Z,61.40
2018-12-11T22:25:11.647Z,61.40
2018-12-11T22:27:39.109Z,61.60
2018-12-11T22:30:06.694Z,61.60
2018-12-11T22:32:34.218Z,61.40
2018-12-11T22:35:01.830Z,61.50
2018-12-11T22:37:29.329Z,61.30
2018-12-11T22:39:56.789Z,61.70
2018-12-11T22:42:24.273Z,61.70
2018-12-11T22:44:51.800Z,61.40
2018-12-11T22:47:19.277Z,61.60
2018-12-11T22:49:46.810Z,61.70
2018-12-11T22:52:14.350Z,61.90
2018-12-11T22:54:42.061Z,62.10
2018-12-11T22:57:09.572Z,62.20
2018-12-11T22:59:37.108Z,62.00
2018-12-11T23:02:04.871Z,62.40
2018-12-11T23:04:32.396Z,62.00
2018-12-11T23:06:59.894Z,62.50
2018-12-11T23:09:27.354Z,62.70
2018-12-11T23:11:54.977Z,62.40
2018-12-11T23:14:22.501Z,62.70
2018-12-11T23:16:49.947Z,62.10
2018-12-11T23:19:17.413Z,62.60
2018-12-11T23:21:44.882Z,62.40
2018-12-11T23:24:12.453Z,62.00
2018-12-11T23:26:40.010Z,62.40
2018-12-11T23:29:07.616Z,61.30
2018-12-11T23:31:35.075Z,61.90
2018-12-11T23:34:02.599Z,62.50
2018-12-11T23:36:31.488Z,62.40
2018-12-11T23:38:59.958Z,62.00
2018-12-11T23:41:27.469Z,62.50
2018-12-11T23:43:54.955Z,62.20
2018-12-11T23:46:22.424Z,62.60
2018-12-11T23:48:49.897Z,62.60
2018-12-11T23:51:17.377Z,61.80
2018-12-11T23:53:44.852Z,61.80
2018-12-11T23:56:12.322Z,61.80
2018-12-11T23:58:39.805Z,62.40
